Overview Statistics Trail Chart Weather Telemetry Raw packets
 

This is the latest recevied telemetry packets stored in our database for station/object DH9JH-10. If no packets are shown the sender has not sent any telemetry packets the latest 10 day(s).

Telemetry packets is used to share measurements like repeteater parameters, battery voltage, radiation readings (or any other measurements).

<< 1 2 3 >>
Time Press* Temp.in* Hum* QNH* Temp.out*
1788703015 998.3 hPa 40.1 C deg 0 % 1027.1 hPa 0 C deg
1788701179 998.6 hPa 39.3 C deg 0 % 1027.5 hPa 0 C deg
1788701179 998.6 hPa 39.3 C deg 0 % 1027.5 hPa 0 C deg
1788701008 998.6 hPa 39.2 C deg 0 % 1027.5 hPa 0 C deg
1788699208 999 hPa 38.6 C deg 0 % 1027.9 hPa 0 C deg
1788699208 999 hPa 38.6 C deg 0 % 1027.9 hPa 0 C deg
1788697409 999.5 hPa 37.5 C deg 0 % 1028.5 hPa 0 C deg
1788697409 999.5 hPa 37.5 C deg 0 % 1028.5 hPa 0 C deg
1788695608 999.6 hPa 35.5 C deg 0 % 1028.9 hPa 0 C deg
1788695608 999.6 hPa 35.5 C deg 0 % 1028.9 hPa 0 C deg
1788692249 1000.2 hPa 31.2 C deg 0 % 1029.9 hPa 0 C deg
1788692249 1000.2 hPa 31.2 C deg 0 % 1029.9 hPa 0 C deg
1788617921 998.3 hPa 38 C deg 0 % 1027.3 hPa 0 C deg
1788617921 998.3 hPa 38 C deg 0 % 1027.3 hPa 0 C deg
1788539033 989.3 hPa 37.2 C deg 0 % 1018.1 hPa 0 C deg
1788531276 989.7 hPa 40.2 C deg 0 % 1018.2 hPa 0 C deg
1788531276 989.7 hPa 40.2 C deg 0 % 1018.2 hPa 0 C deg
1788114929 988.5 hPa 31.2 C deg 0 % 1017.9 hPa 0 C deg
1788113129 988.6 hPa 32.2 C deg 0 % 1017.8 hPa 0 C deg
1788113128 988.6 hPa 32.2 C deg 0 % 1017.8 hPa 0 C deg
1788111328 988.6 hPa 33.2 C deg 0 % 1017.8 hPa 0 C deg
1788111328 988.6 hPa 33.2 C deg 0 % 1017.8 hPa 0 C deg
1788109528 988.7 hPa 34.1 C deg 0 % 1017.8 hPa 0 C deg
1788107303 988.9 hPa 35 C deg 0 % 1018 hPa 0 C deg
1788107303 988.9 hPa 35 C deg 0 % 1018 hPa 0 C deg
*Used Equation Coefficients:
Press: 0, 1, 0
Temp.in: 0, 1, 0
Hum: 0, 1, 0
QNH: 0, 1, 0
Temp.out: 0, 1, 0

  • The parameter names for the analog channels will be Value1, Value2, Value3 (up to Value5) if station has not sent a PARAM-packet that specifies the parameter names for each analog channel.
  • Each analog value is a decimal number between 000 and 255 (according to APRS specifications). The receiver use the telemetry equation coefficientsto to restore the original sensor values. If no EQNS-packet with equation coefficients is sent we will show the values as is (this corresponds to the equation coefficients a=0, b=1 and c=0).
    The sent equation coefficients is used in the equation: a * value2 + b * value + c.
  • The units for the analog values will not be shown if station has not sent a UNIT-packet specifying what unit's to use.
  • The parameter names for the digital bits will be Bit1, Bit2, Bit3 (up to Bit8) if station has not sent a PARAM-packet that specifies the parameter names for each digital bit.
  • All bit labels will be named "On" if station has not sent a UNIT-packet that specifies the label of each bit.
  • A bit is considered to be On when the bit is 1 if station has not sent a BITS-packet that specifies another "Bit sense" (a BITS-packet specify the state of the bits that match the BIT labels)